sensor_id;sensor_type;location;lat;lon;timestamp;P1;durP1;ratioP1;P2;durP2;ratioP2
27744;SDS011;61387;48.112;8.616;2023-12-14T00:02:07;1.97;;;1.20;;
27744;SDS011;61387;48.112;8.616;2023-12-14T00:04:33;4.60;;;2.07;;
27744;SDS011;61387;48.112;8.616;2023-12-14T00:06:59;1.63;;;1.30;;
27744;SDS011;61387;48.112;8.616;2023-12-14T00:09:25;2.60;;;1.10;;
27744;SDS011;61387;48.112;8.616;2023-12-14T00:11:51;6.23;;;2.20;;
27744;SDS011;61387;48.112;8.616;2023-12-14T00:14:17;8.33;;;3.40;;
27744;SDS011;61387;48.112;8.616;2023-12-14T00:16:43;4.23;;;2.20;;
27744;SDS011;61387;48.112;8.616;2023-12-14T00:19:09;3.20;;;1.80;;
27744;SDS011;61387;48.112;8.616;2023-12-14T00:21:35;7.97;;;4.63;;
27744;SDS011;61387;48.112;8.616;2023-12-14T00:24:01;15.73;;;7.27;;
27744;SDS011;61387;48.112;8.616;2023-12-14T00:26:27;10.93;;;5.20;;
27744;SDS011;61387;48.112;8.616;2023-12-14T00:28:53;6.97;;;2.90;;
27744;SDS011;61387;48.112;8.616;2023-12-14T00:31:19;4.90;;;2.50;;
27744;SDS011;61387;48.112;8.616;2023-12-14T00:33:45;4.00;;;2.00;;
27744;SDS011;61387;48.112;8.616;2023-12-14T00:36:17;4.27;;;2.13;;
27744;SDS011;61387;48.112;8.616;2023-12-14T00:38:43;3.80;;;2.17;;
27744;SDS011;61387;48.112;8.616;2023-12-14T00:41:09;7.90;;;2.70;;
27744;SDS011;61387;48.112;8.616;2023-12-14T00:43:35;8.37;;;3.20;;
27744;SDS011;61387;48.112;8.616;2023-12-14T00:46:01;5.40;;;2.70;;
27744;SDS011;61387;48.112;8.616;2023-12-14T00:48:27;7.07;;;3.80;;
27744;SDS011;61387;48.112;8.616;2023-12-14T00:50:53;8.50;;;3.33;;
27744;SDS011;61387;48.112;8.616;2023-12-14T00:53:19;8.03;;;3.53;;
27744;SDS011;61387;48.112;8.616;2023-12-14T00:55:45;11.80;;;4.37;;
27744;SDS011;61387;48.112;8.616;2023-12-14T00:58:11;6.57;;;3.50;;
27744;SDS011;61387;48.112;8.616;2023-12-14T01:00:40;8.37;;;3.90;;
27744;SDS011;61387;48.112;8.616;2023-12-14T01:03:06;7.30;;;3.77;;
27744;SDS011;61387;48.112;8.616;2023-12-14T01:05:32;6.17;;;3.30;;
27744;SDS011;61387;48.112;8.616;2023-12-14T01:07:58;7.57;;;3.57;;
27744;SDS011;61387;48.112;8.616;2023-12-14T01:10:24;9.83;;;4.30;;
27744;SDS011;61387;48.112;8.616;2023-12-14T01:12:50;6.80;;;3.40;;
27744;SDS011;61387;48.112;8.616;2023-12-14T01:15:16;6.90;;;2.57;;
27744;SDS011;61387;48.112;8.616;2023-12-14T01:17:42;5.57;;;2.17;;
27744;SDS011;61387;48.112;8.616;2023-12-14T01:20:08;4.13;;;2.07;;
27744;SDS011;61387;48.112;8.616;2023-12-14T01:22:34;3.60;;;2.27;;
27744;SDS011;61387;48.112;8.616;2023-12-14T01:25:00;4.33;;;2.70;;
27744;SDS011;61387;48.112;8.616;2023-12-14T01:27:26;4.07;;;2.57;;
27744;SDS011;61387;48.112;8.616;2023-12-14T01:29:52;4.63;;;2.83;;
27744;SDS011;61387;48.112;8.616;2023-12-14T01:32:18;3.57;;;2.17;;
27744;SDS011;61387;48.112;8.616;2023-12-14T01:34:44;3.47;;;2.23;;
27744;SDS011;61387;48.112;8.616;2023-12-14T01:37:10;4.77;;;2.20;;
27744;SDS011;61387;48.112;8.616;2023-12-14T01:39:36;3.17;;;1.63;;
27744;SDS011;61387;48.112;8.616;2023-12-14T01:42:02;2.47;;;1.70;;
27744;SDS011;61387;48.112;8.616;2023-12-14T01:44:28;3.87;;;2.27;;
27744;SDS011;61387;48.112;8.616;2023-12-14T01:46:54;2.63;;;1.90;;
27744;SDS011;61387;48.112;8.616;2023-12-14T01:49:20;3.97;;;2.00;;
27744;SDS011;61387;48.112;8.616;2023-12-14T01:51:46;4.80;;;1.93;;
27744;SDS011;61387;48.112;8.616;2023-12-14T01:54:12;2.53;;;1.87;;
27744;SDS011;61387;48.112;8.616;2023-12-14T01:56:38;2.43;;;1.80;;
27744;SDS011;61387;48.112;8.616;2023-12-14T01:59:05;1.90;;;1.30;;
27744;SDS011;61387;48.112;8.616;2023-12-14T02:04:10;2.87;;;1.80;;
27744;SDS011;61387;48.112;8.616;2023-12-14T02:06:37;4.40;;;2.70;;
27744;SDS011;61387;48.112;8.616;2023-12-14T02:09:03;5.10;;;2.50;;
27744;SDS011;61387;48.112;8.616;2023-12-14T02:11:29;4.30;;;2.40;;
27744;SDS011;61387;48.112;8.616;2023-12-14T02:13:55;3.57;;;2.37;;
27744;SDS011;61387;48.112;8.616;2023-12-14T02:16:21;6.43;;;3.50;;
27744;SDS011;61387;48.112;8.616;2023-12-14T02:18:47;4.57;;;3.10;;
27744;SDS011;61387;48.112;8.616;2023-12-14T02:21:13;7.30;;;3.37;;
27744;SDS011;61387;48.112;8.616;2023-12-14T02:23:45;7.43;;;3.20;;
27744;SDS011;61387;48.112;8.616;2023-12-14T02:26:11;5.30;;;2.97;;
27744;SDS011;61387;48.112;8.616;2023-12-14T02:28:37;5.63;;;3.47;;
27744;SDS011;61387;48.112;8.616;2023-12-14T02:31:03;8.20;;;3.53;;
27744;SDS011;61387;48.112;8.616;2023-12-14T02:33:29;6.50;;;3.50;;
27744;SDS011;61387;48.112;8.616;2023-12-14T02:35:56;6.90;;;3.53;;
27744;SDS011;61387;48.112;8.616;2023-12-14T02:38:22;4.63;;;3.00;;
27744;SDS011;61387;48.112;8.616;2023-12-14T02:40:48;5.83;;;3.27;;
27744;SDS011;61387;48.112;8.616;2023-12-14T02:43:16;7.13;;;3.50;;
27744;SDS011;61387;48.112;8.616;2023-12-14T02:45:41;7.87;;;3.90;;
27744;SDS011;61387;48.112;8.616;2023-12-14T02:48:07;6.47;;;3.80;;
27744;SDS011;61387;48.112;8.616;2023-12-14T02:50:33;7.93;;;3.90;;
27744;SDS011;61387;48.112;8.616;2023-12-14T02:52:59;4.43;;;3.00;;
27744;SDS011;61387;48.112;8.616;2023-12-14T02:55:25;7.83;;;3.40;;
27744;SDS011;61387;48.112;8.616;2023-12-14T02:57:51;6.30;;;3.00;;
27744;SDS011;61387;48.112;8.616;2023-12-14T03:00:17;5.67;;;3.10;;
27744;SDS011;61387;48.112;8.616;2023-12-14T03:02:42;4.33;;;2.70;;
27744;SDS011;61387;48.112;8.616;2023-12-14T03:05:08;3.30;;;2.20;;
27744;SDS011;61387;48.112;8.616;2023-12-14T03:07:34;4.80;;;2.37;;
27744;SDS011;61387;48.112;8.616;2023-12-14T03:10:01;5.00;;;2.40;;
27744;SDS011;61387;48.112;8.616;2023-12-14T03:12:28;4.53;;;2.33;;
27744;SDS011;61387;48.112;8.616;2023-12-14T03:14:54;2.77;;;1.67;;
27744;SDS011;61387;48.112;8.616;2023-12-14T03:17:20;5.23;;;1.60;;
27744;SDS011;61387;48.112;8.616;2023-12-14T03:19:45;5.83;;;1.57;;
27744;SDS011;61387;48.112;8.616;2023-12-14T03:22:11;3.13;;;1.67;;
27744;SDS011;61387;48.112;8.616;2023-12-14T03:24:37;1.73;;;1.40;;
27744;SDS011;61387;48.112;8.616;2023-12-14T03:27:03;2.03;;;1.00;;
27744;SDS011;61387;48.112;8.616;2023-12-14T03:29:30;1.10;;;0.80;;
27744;SDS011;61387;48.112;8.616;2023-12-14T03:31:56;2.30;;;1.33;;
27744;SDS011;61387;48.112;8.616;2023-12-14T03:34:22;3.87;;;2.03;;
27744;SDS011;61387;48.112;8.616;2023-12-14T03:36:48;7.17;;;2.33;;
27744;SDS011;61387;48.112;8.616;2023-12-14T03:39:14;3.30;;;2.13;;
27744;SDS011;61387;48.112;8.616;2023-12-14T03:41:41;3.00;;;1.60;;
27744;SDS011;61387;48.112;8.616;2023-12-14T03:44:07;2.57;;;1.30;;
27744;SDS011;61387;48.112;8.616;2023-12-14T03:46:33;2.57;;;1.47;;
27744;SDS011;61387;48.112;8.616;2023-12-14T03:48:59;2.07;;;1.50;;
27744;SDS011;61387;48.112;8.616;2023-12-14T03:51:25;3.07;;;1.60;;
27744;SDS011;61387;48.112;8.616;2023-12-14T03:53:51;3.37;;;1.70;;
27744;SDS011;61387;48.112;8.616;2023-12-14T03:56:17;2.87;;;1.90;;
27744;SDS011;61387;48.112;8.616;2023-12-14T03:58:43;4.03;;;1.87;;
27744;SDS011;61387;48.112;8.616;2023-12-14T04:01:19;4.80;;;1.90;;
27744;SDS011;61387;48.112;8.616;2023-12-14T04:03:45;9.13;;;2.77;;
27744;SDS011;61387;48.112;8.616;2023-12-14T04:06:12;5.20;;;2.90;;
27744;SDS011;61387;48.112;8.616;2023-12-14T04:08:38;5.93;;;2.20;;
27744;SDS011;61387;48.112;8.616;2023-12-14T04:11:05;6.50;;;2.40;;
27744;SDS011;61387;48.112;8.616;2023-12-14T04:13:31;2.20;;;1.53;;
27744;SDS011;61387;48.112;8.616;2023-12-14T04:15:57;3.17;;;1.87;;
27744;SDS011;61387;48.112;8.616;2023-12-14T04:18:23;2.40;;;1.57;;
27744;SDS011;61387;48.112;8.616;2023-12-14T04:20:48;2.80;;;1.83;;
27744;SDS011;61387;48.112;8.616;2023-12-14T04:23:14;4.80;;;1.83;;
27744;SDS011;61387;48.112;8.616;2023-12-14T04:25:40;3.10;;;1.87;;
27744;SDS011;61387;48.112;8.616;2023-12-14T04:28:06;3.40;;;2.30;;
27744;SDS011;61387;48.112;8.616;2023-12-14T04:30:32;3.47;;;2.07;;
27744;SDS011;61387;48.112;8.616;2023-12-14T04:32:58;3.33;;;2.20;;
27744;SDS011;61387;48.112;8.616;2023-12-14T04:35:24;3.90;;;2.30;;
27744;SDS011;61387;48.112;8.616;2023-12-14T04:37:50;4.33;;;2.30;;
27744;SDS011;61387;48.112;8.616;2023-12-14T04:40:16;5.13;;;2.53;;
27744;SDS011;61387;48.112;8.616;2023-12-14T04:42:42;5.47;;;2.10;;
27744;SDS011;61387;48.112;8.616;2023-12-14T04:45:08;4.63;;;2.20;;
27744;SDS011;61387;48.112;8.616;2023-12-14T04:47:34;3.43;;;2.23;;
27744;SDS011;61387;48.112;8.616;2023-12-14T04:50:01;4.60;;;2.33;;
27744;SDS011;61387;48.112;8.616;2023-12-14T04:52:27;4.93;;;2.77;;
27744;SDS011;61387;48.112;8.616;2023-12-14T04:54:52;4.83;;;2.50;;
27744;SDS011;61387;48.112;8.616;2023-12-14T04:57:18;4.50;;;2.73;;
27744;SDS011;61387;48.112;8.616;2023-12-14T04:59:44;3.07;;;2.10;;
27744;SDS011;61387;48.112;8.616;2023-12-14T05:02:10;4.93;;;2.50;;
27744;SDS011;61387;48.112;8.616;2023-12-14T05:04:36;3.27;;;2.10;;
27744;SDS011;61387;48.112;8.616;2023-12-14T05:07:02;3.23;;;2.30;;
27744;SDS011;61387;48.112;8.616;2023-12-14T05:09:28;4.47;;;2.43;;
27744;SDS011;61387;48.112;8.616;2023-12-14T05:11:54;3.03;;;2.27;;
27744;SDS011;61387;48.112;8.616;2023-12-14T05:14:20;3.30;;;2.43;;
27744;SDS011;61387;48.112;8.616;2023-12-14T05:16:46;5.57;;;2.90;;
27744;SDS011;61387;48.112;8.616;2023-12-14T05:19:12;6.17;;;3.13;;
27744;SDS011;61387;48.112;8.616;2023-12-14T05:21:38;6.73;;;3.70;;
27744;SDS011;61387;48.112;8.616;2023-12-14T05:24:04;6.57;;;3.53;;
27744;SDS011;61387;48.112;8.616;2023-12-14T05:26:30;6.53;;;3.40;;
27744;SDS011;61387;48.112;8.616;2023-12-14T05:28:56;4.87;;;2.93;;
27744;SDS011;61387;48.112;8.616;2023-12-14T05:31:22;5.83;;;2.80;;
27744;SDS011;61387;48.112;8.616;2023-12-14T05:33:48;5.53;;;2.30;;
27744;SDS011;61387;48.112;8.616;2023-12-14T05:36:14;3.27;;;1.97;;
27744;SDS011;61387;48.112;8.616;2023-12-14T05:38:41;3.07;;;1.87;;
27744;SDS011;61387;48.112;8.616;2023-12-14T05:41:07;2.20;;;1.77;;
27744;SDS011;61387;48.112;8.616;2023-12-14T05:43:33;2.87;;;1.90;;
27744;SDS011;61387;48.112;8.616;2023-12-14T05:45:59;5.57;;;2.83;;
27744;SDS011;61387;48.112;8.616;2023-12-14T05:48:25;7.37;;;3.60;;
27744;SDS011;61387;48.112;8.616;2023-12-14T05:50:53;7.23;;;3.73;;
27744;SDS011;61387;48.112;8.616;2023-12-14T05:53:19;7.67;;;4.23;;
27744;SDS011;61387;48.112;8.616;2023-12-14T05:55:45;6.73;;;3.83;;
27744;SDS011;61387;48.112;8.616;2023-12-14T05:58:11;6.17;;;3.33;;
27744;SDS011;61387;48.112;8.616;2023-12-14T06:00:37;6.90;;;3.80;;
27744;SDS011;61387;48.112;8.616;2023-12-14T06:03:04;6.27;;;3.27;;
27744;SDS011;61387;48.112;8.616;2023-12-14T06:05:30;5.53;;;3.20;;
27744;SDS011;61387;48.112;8.616;2023-12-14T06:07:56;8.17;;;3.47;;
27744;SDS011;61387;48.112;8.616;2023-12-14T06:10:22;5.43;;;3.07;;
27744;SDS011;61387;48.112;8.616;2023-12-14T06:12:48;4.70;;;2.30;;
27744;SDS011;61387;48.112;8.616;2023-12-14T06:15:14;4.03;;;2.60;;
27744;SDS011;61387;48.112;8.616;2023-12-14T06:17:40;4.30;;;2.73;;
27744;SDS011;61387;48.112;8.616;2023-12-14T06:20:07;24.60;;;16.00;;
27744;SDS011;61387;48.112;8.616;2023-12-14T06:22:33;10.27;;;5.60;;
27744;SDS011;61387;48.112;8.616;2023-12-14T06:25:18;5.03;;;3.07;;
27744;SDS011;61387;48.112;8.616;2023-12-14T06:27:44;6.27;;;2.93;;
27744;SDS011;61387;48.112;8.616;2023-12-14T06:30:10;6.23;;;2.50;;
27744;SDS011;61387;48.112;8.616;2023-12-14T06:32:36;4.13;;;2.30;;
27744;SDS011;61387;48.112;8.616;2023-12-14T06:35:02;3.93;;;2.50;;
27744;SDS011;61387;48.112;8.616;2023-12-14T06:37:40;5.07;;;2.70;;
27744;SDS011;61387;48.112;8.616;2023-12-14T06:40:08;4.00;;;2.43;;
27744;SDS011;61387;48.112;8.616;2023-12-14T06:42:34;4.53;;;2.50;;
27744;SDS011;61387;48.112;8.616;2023-12-14T06:45:01;5.50;;;2.63;;
27744;SDS011;61387;48.112;8.616;2023-12-14T06:47:27;3.93;;;2.40;;
27744;SDS011;61387;48.112;8.616;2023-12-14T06:49:53;3.87;;;2.40;;
27744;SDS011;61387;48.112;8.616;2023-12-14T06:52:21;3.83;;;2.50;;
27744;SDS011;61387;48.112;8.616;2023-12-14T06:54:47;3.97;;;2.20;;
27744;SDS011;61387;48.112;8.616;2023-12-14T06:57:13;4.23;;;2.60;;
27744;SDS011;61387;48.112;8.616;2023-12-14T06:59:39;4.80;;;2.53;;
27744;SDS011;61387;48.112;8.616;2023-12-14T07:02:05;8.37;;;3.40;;
27744;SDS011;61387;48.112;8.616;2023-12-14T07:04:31;7.57;;;3.43;;
27744;SDS011;61387;48.112;8.616;2023-12-14T07:06:58;8.03;;;3.90;;
27744;SDS011;61387;48.112;8.616;2023-12-14T07:09:24;5.13;;;3.10;;
27744;SDS011;61387;48.112;8.616;2023-12-14T07:11:51;6.00;;;2.70;;
27744;SDS011;61387;48.112;8.616;2023-12-14T07:14:21;3.90;;;2.47;;
27744;SDS011;61387;48.112;8.616;2023-12-14T07:16:46;2.73;;;2.00;;
27744;SDS011;61387;48.112;8.616;2023-12-14T07:19:12;3.27;;;2.30;;
27744;SDS011;61387;48.112;8.616;2023-12-14T07:21:38;9.37;;;4.27;;
27744;SDS011;61387;48.112;8.616;2023-12-14T07:24:04;5.07;;;2.70;;
27744;SDS011;61387;48.112;8.616;2023-12-14T07:26:30;5.83;;;2.53;;
27744;SDS011;61387;48.112;8.616;2023-12-14T07:28:57;5.47;;;3.20;;
27744;SDS011;61387;48.112;8.616;2023-12-14T07:31:22;9.87;;;5.77;;
27744;SDS011;61387;48.112;8.616;2023-12-14T07:33:49;7.47;;;4.80;;
27744;SDS011;61387;48.112;8.616;2023-12-14T07:36:14;5.43;;;3.40;;
27744;SDS011;61387;48.112;8.616;2023-12-14T07:38:41;10.53;;;7.50;;
27744;SDS011;61387;48.112;8.616;2023-12-14T07:41:07;10.93;;;5.30;;
27744;SDS011;61387;48.112;8.616;2023-12-14T07:43:33;11.43;;;4.67;;
27744;SDS011;61387;48.112;8.616;2023-12-14T07:46:02;9.67;;;4.40;;
27744;SDS011;61387;48.112;8.616;2023-12-14T07:48:28;11.47;;;4.97;;
27744;SDS011;61387;48.112;8.616;2023-12-14T07:50:54;11.83;;;5.60;;
27744;SDS011;61387;48.112;8.616;2023-12-14T07:53:24;9.80;;;5.17;;
27744;SDS011;61387;48.112;8.616;2023-12-14T07:55:50;12.03;;;4.93;;
27744;SDS011;61387;48.112;8.616;2023-12-14T07:58:16;8.70;;;5.20;;
27744;SDS011;61387;48.112;8.616;2023-12-14T08:00:42;22.57;;;12.67;;
27744;SDS011;61387;48.112;8.616;2023-12-14T08:03:07;11.43;;;5.90;;
27744;SDS011;61387;48.112;8.616;2023-12-14T08:05:33;21.73;;;11.53;;
27744;SDS011;61387;48.112;8.616;2023-12-14T08:07:59;16.50;;;9.67;;
27744;SDS011;61387;48.112;8.616;2023-12-14T08:10:25;7.60;;;4.90;;
27744;SDS011;61387;48.112;8.616;2023-12-14T08:12:51;6.77;;;4.00;;
27744;SDS011;61387;48.112;8.616;2023-12-14T08:15:18;10.97;;;6.73;;
27744;SDS011;61387;48.112;8.616;2023-12-14T08:17:44;39.63;;;19.57;;
27744;SDS011;61387;48.112;8.616;2023-12-14T08:20:10;18.87;;;9.27;;
27744;SDS011;61387;48.112;8.616;2023-12-14T08:22:37;11.07;;;6.07;;
27744;SDS011;61387;48.112;8.616;2023-12-14T08:25:13;10.10;;;5.20;;
27744;SDS011;61387;48.112;8.616;2023-12-14T08:27:42;13.67;;;6.67;;
27744;SDS011;61387;48.112;8.616;2023-12-14T08:30:13;10.33;;;6.10;;
27744;SDS011;61387;48.112;8.616;2023-12-14T08:32:38;9.93;;;6.10;;
27744;SDS011;61387;48.112;8.616;2023-12-14T08:35:04;9.20;;;4.77;;
27744;SDS011;61387;48.112;8.616;2023-12-14T08:37:31;9.30;;;4.60;;
27744;SDS011;61387;48.112;8.616;2023-12-14T08:39:56;8.63;;;3.60;;
27744;SDS011;61387;48.112;8.616;2023-12-14T08:42:22;10.57;;;5.20;;
27744;SDS011;61387;48.112;8.616;2023-12-14T08:44:48;8.47;;;4.00;;
27744;SDS011;61387;48.112;8.616;2023-12-14T08:47:14;10.13;;;5.00;;
27744;SDS011;61387;48.112;8.616;2023-12-14T08:49:40;10.97;;;6.53;;
27744;SDS011;61387;48.112;8.616;2023-12-14T08:52:06;10.90;;;6.17;;
27744;SDS011;61387;48.112;8.616;2023-12-14T08:54:32;10.23;;;5.00;;
27744;SDS011;61387;48.112;8.616;2023-12-14T08:56:58;14.70;;;5.67;;
27744;SDS011;61387;48.112;8.616;2023-12-14T08:59:26;10.20;;;5.07;;
27744;SDS011;61387;48.112;8.616;2023-12-14T09:01:52;8.57;;;4.23;;
27744;SDS011;61387;48.112;8.616;2023-12-14T09:04:17;6.43;;;2.73;;
27744;SDS011;61387;48.112;8.616;2023-12-14T09:06:43;7.40;;;3.80;;
27744;SDS011;61387;48.112;8.616;2023-12-14T09:09:11;12.60;;;6.37;;
27744;SDS011;61387;48.112;8.616;2023-12-14T09:11:37;9.40;;;4.37;;
27744;SDS011;61387;48.112;8.616;2023-12-14T09:14:04;9.70;;;4.80;;
27744;SDS011;61387;48.112;8.616;2023-12-14T09:16:30;11.37;;;6.57;;
27744;SDS011;61387;48.112;8.616;2023-12-14T09:18:57;22.67;;;10.10;;
27744;SDS011;61387;48.112;8.616;2023-12-14T09:21:24;12.03;;;6.03;;
27744;SDS011;61387;48.112;8.616;2023-12-14T09:23:49;3.00;;;1.87;;
27744;SDS011;61387;48.112;8.616;2023-12-14T09:26:18;2.70;;;1.97;;
27744;SDS011;61387;48.112;8.616;2023-12-14T09:28:45;4.50;;;2.40;;
27744;SDS011;61387;48.112;8.616;2023-12-14T09:31:10;4.40;;;2.10;;
27744;SDS011;61387;48.112;8.616;2023-12-14T09:33:37;11.27;;;9.90;;
27744;SDS011;61387;48.112;8.616;2023-12-14T09:36:04;6.30;;;3.47;;
27744;SDS011;61387;48.112;8.616;2023-12-14T09:38:30;5.30;;;3.63;;
27744;SDS011;61387;48.112;8.616;2023-12-14T09:40:56;10.03;;;6.47;;
27744;SDS011;61387;48.112;8.616;2023-12-14T09:43:22;5.37;;;3.00;;
27744;SDS011;61387;48.112;8.616;2023-12-14T09:45:48;3.47;;;1.80;;
27744;SDS011;61387;48.112;8.616;2023-12-14T09:48:21;5.80;;;2.03;;
27744;SDS011;61387;48.112;8.616;2023-12-14T09:50:48;4.47;;;2.37;;
27744;SDS011;61387;48.112;8.616;2023-12-14T09:53:15;6.23;;;3.43;;
27744;SDS011;61387;48.112;8.616;2023-12-14T09:55:41;19.13;;;8.00;;
27744;SDS011;61387;48.112;8.616;2023-12-14T09:58:07;5.33;;;3.00;;
27744;SDS011;61387;48.112;8.616;2023-12-14T10:03:16;3.60;;;1.90;;
27744;SDS011;61387;48.112;8.616;2023-12-14T10:05:46;5.33;;;2.00;;
27744;SDS011;61387;48.112;8.616;2023-12-14T10:08:13;2.83;;;1.80;;
27744;SDS011;61387;48.112;8.616;2023-12-14T10:10:40;3.30;;;1.83;;
27744;SDS011;61387;48.112;8.616;2023-12-14T10:13:06;3.17;;;1.73;;
27744;SDS011;61387;48.112;8.616;2023-12-14T10:15:40;3.43;;;1.40;;
27744;SDS011;61387;48.112;8.616;2023-12-14T10:18:24;3.67;;;2.00;;
27744;SDS011;61387;48.112;8.616;2023-12-14T10:20:50;2.90;;;1.80;;
27744;SDS011;61387;48.112;8.616;2023-12-14T10:23:16;2.93;;;1.60;;
27744;SDS011;61387;48.112;8.616;2023-12-14T10:25:43;3.60;;;2.17;;
27744;SDS011;61387;48.112;8.616;2023-12-14T10:28:12;5.20;;;1.90;;
27744;SDS011;61387;48.112;8.616;2023-12-14T10:30:39;4.03;;;1.43;;
27744;SDS011;61387;48.112;8.616;2023-12-14T10:33:05;2.83;;;1.27;;
27744;SDS011;61387;48.112;8.616;2023-12-14T10:35:31;4.27;;;1.60;;
27744;SDS011;61387;48.112;8.616;2023-12-14T10:37:58;2.87;;;0.93;;
27744;SDS011;61387;48.112;8.616;2023-12-14T10:40:28;2.23;;;1.20;;
27744;SDS011;61387;48.112;8.616;2023-12-14T10:42:55;5.63;;;2.40;;
27744;SDS011;61387;48.112;8.616;2023-12-14T10:45:24;3.53;;;1.83;;
27744;SDS011;61387;48.112;8.616;2023-12-14T10:47:54;1.60;;;0.90;;
27744;SDS011;61387;48.112;8.616;2023-12-14T10:50:20;1.43;;;0.93;;
27744;SDS011;61387;48.112;8.616;2023-12-14T10:52:46;1.83;;;1.33;;
27744;SDS011;61387;48.112;8.616;2023-12-14T10:55:23;10.97;;;5.43;;
27744;SDS011;61387;48.112;8.616;2023-12-14T10:57:53;21.37;;;11.23;;
27744;SDS011;61387;48.112;8.616;2023-12-14T11:00:18;5.23;;;2.30;;
27744;SDS011;61387;48.112;8.616;2023-12-14T11:02:45;1.97;;;1.30;;
27744;SDS011;61387;48.112;8.616;2023-12-14T11:05:11;2.87;;;1.60;;
27744;SDS011;61387;48.112;8.616;2023-12-14T11:07:53;2.70;;;1.77;;
27744;SDS011;61387;48.112;8.616;2023-12-14T11:10:27;3.07;;;1.83;;
27744;SDS011;61387;48.112;8.616;2023-12-14T11:13:01;3.77;;;1.93;;
27744;SDS011;61387;48.112;8.616;2023-12-14T11:15:28;5.73;;;2.97;;
27744;SDS011;61387;48.112;8.616;2023-12-14T11:23:14;1.33;;;0.70;;
27744;SDS011;61387;48.112;8.616;2023-12-14T11:25:54;1.63;;;0.93;;
27744;SDS011;61387;48.112;8.616;2023-12-14T11:28:22;1.70;;;1.00;;
27744;SDS011;61387;48.112;8.616;2023-12-14T11:30:48;1.93;;;1.30;;
27744;SDS011;61387;48.112;8.616;2023-12-14T11:33:14;2.90;;;1.13;;
27744;SDS011;61387;48.112;8.616;2023-12-14T11:35:40;0.80;;;0.50;;
27744;SDS011;61387;48.112;8.616;2023-12-14T11:38:06;1.37;;;0.60;;
27744;SDS011;61387;48.112;8.616;2023-12-14T11:40:38;0.80;;;0.80;;
27744;SDS011;61387;48.112;8.616;2023-12-14T11:43:10;0.80;;;0.60;;
27744;SDS011;61387;48.112;8.616;2023-12-14T11:45:39;1.83;;;1.00;;
27744;SDS011;61387;48.112;8.616;2023-12-14T11:48:09;3.70;;;1.70;;
27744;SDS011;61387;48.112;8.616;2023-12-14T11:50:40;3.60;;;2.03;;
27744;SDS011;61387;48.112;8.616;2023-12-14T11:53:08;1.47;;;0.60;;
27744;SDS011;61387;48.112;8.616;2023-12-14T11:55:35;0.77;;;0.30;;
27744;SDS011;61387;48.112;8.616;2023-12-14T11:58:03;0.93;;;0.50;;
27744;SDS011;61387;48.112;8.616;2023-12-14T12:00:29;0.60;;;0.60;;
27744;SDS011;61387;48.112;8.616;2023-12-14T12:05:41;1.90;;;0.80;;
27744;SDS011;61387;48.112;8.616;2023-12-14T12:08:08;0.57;;;0.50;;
27744;SDS011;61387;48.112;8.616;2023-12-14T12:10:35;0.70;;;0.43;;
27744;SDS011;61387;48.112;8.616;2023-12-14T12:13:01;1.17;;;0.80;;
27744;SDS011;61387;48.112;8.616;2023-12-14T12:15:29;1.03;;;0.53;;
27744;SDS011;61387;48.112;8.616;2023-12-14T12:17:56;3.47;;;1.73;;
27744;SDS011;61387;48.112;8.616;2023-12-14T12:20:22;1.37;;;0.90;;
27744;SDS011;61387;48.112;8.616;2023-12-14T12:22:50;2.70;;;0.93;;
27744;SDS011;61387;48.112;8.616;2023-12-14T12:25:16;1.60;;;0.80;;
27744;SDS011;61387;48.112;8.616;2023-12-14T12:27:42;1.63;;;0.93;;
27744;SDS011;61387;48.112;8.616;2023-12-14T12:30:09;3.10;;;1.10;;
27744;SDS011;61387;48.112;8.616;2023-12-14T12:32:35;2.33;;;1.10;;
27744;SDS011;61387;48.112;8.616;2023-12-14T12:35:01;1.73;;;0.70;;
27744;SDS011;61387;48.112;8.616;2023-12-14T12:37:27;1.23;;;0.80;;
27744;SDS011;61387;48.112;8.616;2023-12-14T12:39:53;2.10;;;0.80;;
27744;SDS011;61387;48.112;8.616;2023-12-14T12:42:19;0.90;;;0.70;;
27744;SDS011;61387;48.112;8.616;2023-12-14T12:44:46;0.77;;;0.77;;
27744;SDS011;61387;48.112;8.616;2023-12-14T12:47:12;1.07;;;0.80;;
27744;SDS011;61387;48.112;8.616;2023-12-14T12:49:38;0.60;;;0.60;;
27744;SDS011;61387;48.112;8.616;2023-12-14T12:52:04;3.90;;;0.77;;
27744;SDS011;61387;48.112;8.616;2023-12-14T12:54:33;1.13;;;0.97;;
27744;SDS011;61387;48.112;8.616;2023-12-14T12:56:59;1.30;;;0.87;;
27744;SDS011;61387;48.112;8.616;2023-12-14T12:59:25;1.33;;;0.70;;
27744;SDS011;61387;48.112;8.616;2023-12-14T13:01:51;1.13;;;0.73;;
27744;SDS011;61387;48.112;8.616;2023-12-14T13:04:17;1.10;;;0.70;;
27744;SDS011;61387;48.112;8.616;2023-12-14T13:06:44;2.53;;;0.60;;
27744;SDS011;61387;48.112;8.616;2023-12-14T13:09:10;0.63;;;0.50;;
27744;SDS011;61387;48.112;8.616;2023-12-14T13:11:37;1.47;;;0.70;;
27744;SDS011;61387;48.112;8.616;2023-12-14T13:14:03;1.83;;;0.90;;
27744;SDS011;61387;48.112;8.616;2023-12-14T13:16:32;1.53;;;0.60;;
27744;SDS011;61387;48.112;8.616;2023-12-14T13:18:58;1.20;;;1.10;;
27744;SDS011;61387;48.112;8.616;2023-12-14T13:21:24;1.27;;;0.77;;
27744;SDS011;61387;48.112;8.616;2023-12-14T13:23:50;1.70;;;0.70;;
27744;SDS011;61387;48.112;8.616;2023-12-14T13:26:16;1.33;;;0.83;;
27744;SDS011;61387;48.112;8.616;2023-12-14T13:28:42;1.90;;;1.43;;
27744;SDS011;61387;48.112;8.616;2023-12-14T13:31:08;3.10;;;1.20;;
27744;SDS011;61387;48.112;8.616;2023-12-14T13:33:34;1.30;;;1.00;;
27744;SDS011;61387;48.112;8.616;2023-12-14T13:36:00;1.43;;;1.10;;
27744;SDS011;61387;48.112;8.616;2023-12-14T13:38:25;1.47;;;1.10;;
27744;SDS011;61387;48.112;8.616;2023-12-14T13:40:51;2.70;;;1.50;;
27744;SDS011;61387;48.112;8.616;2023-12-14T13:43:17;2.17;;;1.23;;
27744;SDS011;61387;48.112;8.616;2023-12-14T13:45:43;1.77;;;1.40;;
27744;SDS011;61387;48.112;8.616;2023-12-14T13:48:09;2.47;;;1.77;;
27744;SDS011;61387;48.112;8.616;2023-12-14T13:50:35;2.77;;;1.63;;
27744;SDS011;61387;48.112;8.616;2023-12-14T13:53:01;2.93;;;1.97;;
27744;SDS011;61387;48.112;8.616;2023-12-14T13:55:27;4.13;;;2.20;;
27744;SDS011;61387;48.112;8.616;2023-12-14T13:57:53;6.13;;;3.37;;
27744;SDS011;61387;48.112;8.616;2023-12-14T14:00:22;3.47;;;2.40;;
27744;SDS011;61387;48.112;8.616;2023-12-14T14:02:49;4.17;;;2.23;;
27744;SDS011;61387;48.112;8.616;2023-12-14T14:05:15;3.63;;;2.33;;
27744;SDS011;61387;48.112;8.616;2023-12-14T14:07:41;4.57;;;2.20;;
27744;SDS011;61387;48.112;8.616;2023-12-14T14:10:07;4.23;;;2.60;;
27744;SDS011;61387;48.112;8.616;2023-12-14T14:12:33;3.77;;;2.30;;
27744;SDS011;61387;48.112;8.616;2023-12-14T14:14:59;5.03;;;2.70;;
27744;SDS011;61387;48.112;8.616;2023-12-14T14:17:25;4.63;;;3.00;;
27744;SDS011;61387;48.112;8.616;2023-12-14T14:19:51;6.00;;;3.60;;
27744;SDS011;61387;48.112;8.616;2023-12-14T14:22:17;6.53;;;3.33;;
27744;SDS011;61387;48.112;8.616;2023-12-14T14:24:42;5.28;;;3.30;;
27744;SDS011;61387;48.112;8.616;2023-12-14T14:27:08;5.33;;;3.30;;
27744;SDS011;61387;48.112;8.616;2023-12-14T14:29:34;5.30;;;3.17;;
27744;SDS011;61387;48.112;8.616;2023-12-14T14:32:00;5.60;;;2.90;;
27744;SDS011;61387;48.112;8.616;2023-12-14T14:34:26;5.90;;;3.17;;
27744;SDS011;61387;48.112;8.616;2023-12-14T14:36:52;5.80;;;3.23;;
27744;SDS011;61387;48.112;8.616;2023-12-14T14:39:17;4.13;;;3.17;;
27744;SDS011;61387;48.112;8.616;2023-12-14T14:41:44;5.60;;;3.30;;
27744;SDS011;61387;48.112;8.616;2023-12-14T14:44:10;8.33;;;3.33;;
27744;SDS011;61387;48.112;8.616;2023-12-14T14:46:36;6.23;;;3.40;;
27744;SDS011;61387;48.112;8.616;2023-12-14T14:49:02;6.30;;;3.80;;
27744;SDS011;61387;48.112;8.616;2023-12-14T14:51:28;6.50;;;4.10;;
27744;SDS011;61387;48.112;8.616;2023-12-14T14:53:55;4.67;;;2.57;;
27744;SDS011;61387;48.112;8.616;2023-12-14T14:56:21;4.40;;;2.43;;